Time;durP1;ratioP1;P1;durP2;ratioP2;P2;SDS_P1;SDS_P2;PMS_P1;PMS_P2;Temp;Humidity;BMP_temperature;BMP_pressure;BME280_temperature;BME280_humidity;BME280_pressure;Samples;Min_cycle;Max_cycle;Signal;HPM_P1;HPM_P2
2021/09/12 00:01:33;;;;;;;;;;;;;;;17.74;71.71;99616.81;3299711;29;20321;-75
2021/09/12 00:03:14;;;;;;;;;;;;;;;17.75;71.77;99604.16;3300416;29;19933;-74
2021/09/12 00:04:54;;;;;;;;;;;;;;;17.73;71.53;99607.06;3302723;29;20020;-74
2021/09/12 00:06:35;;;;;;;;;;;;;;;17.72;71.76;99610.84;3302002;29;20467;-75
2021/09/12 00:08:15;;;;;;;;;;;;;;;17.72;71.78;99616.22;3301269;29;19987;-74
2021/09/12 00:09:56;;;;;;;;;;;;;;;17.71;71.89;99608.38;3301882;29;19954;-74
2021/09/12 00:11:37;;;;;;;;;;;;;;;17.69;71.88;99611.34;3302892;29;20396;-74
2021/09/12 00:13:17;;;;;;;;;;;;;;;17.65;71.96;99610.97;3310386;29;19937;-73
2021/09/12 00:14:57;;;;;;;;;;;;;;;17.64;71.75;99608.56;3302746;29;20359;-74
2021/09/12 00:16:38;;;;;;;;;;;;;;;17.63;71.95;99606.91;3305958;29;19926;-74
2021/09/12 00:18:18;;;;;;;;;;;;;;;17.63;72.09;99601.50;3314465;29;19933;-74
2021/09/12 00:19:59;;;;;;;;;;;;;;;17.62;71.70;99610.66;3313983;29;19983;-74
2021/09/12 00:21:39;;;;;;;;;;;;;;;17.60;71.80;99602.81;3314320;29;19952;-74
2021/09/12 00:23:20;;;;;;;;;;;;;;;17.59;71.84;99600.38;3303815;29;19925;-74
2021/09/12 00:25:01;;;;;;;;;;;;;;;17.58;72.19;99599.56;3302650;29;19991;-74
2021/09/12 00:26:41;;;;;;;;;;;;;;;17.58;71.94;99598.72;3313299;29;20037;-74
2021/09/12 00:28:22;;;;;;;;;;;;;;;17.57;72.17;99599.78;3303817;29;19930;-73
2021/09/12 00:30:03;;;;;;;;;;;;;;;17.55;71.86;99605.41;3301514;30;19961;-73
2021/09/12 00:31:43;;;;;;;;;;;;;;;17.54;71.88;99605.69;3307182;29;19985;-74
2021/09/12 00:33:24;;;;;;;;;;;;;;;17.54;71.87;99609.19;3314426;29;19929;-74
2021/09/12 00:35:05;;;;;;;;;;;;;;;17.55;72.17;99610.00;3312005;29;19976;-73
2021/09/12 00:36:45;;;;;;;;;;;;;;;17.51;72.06;99601.59;3314371;29;19929;-73
2021/09/12 00:38:26;;;;;;;;;;;;;;;17.49;72.20;99598.31;3310972;29;19929;-73
2021/09/12 00:40:07;;;;;;;;;;;;;;;17.47;72.33;99596.91;3301837;29;19934;-74
2021/09/12 00:41:47;;;;;;;;;;;;;;;17.44;72.24;99607.13;3301835;29;19929;-74
2021/09/12 00:43:28;;;;;;;;;;;;;;;17.42;72.14;99595.78;3301644;29;19970;-74
2021/09/12 00:45:08;;;;;;;;;;;;;;;17.43;72.07;99599.28;3303165;29;19929;-75
2021/09/12 00:46:49;;;;;;;;;;;;;;;17.42;72.31;99589.56;3314146;29;19953;-74
2021/09/12 00:48:29;;;;;;;;;;;;;;;17.40;72.48;99594.38;3308139;29;19933;-74
2021/09/12 00:50:10;;;;;;;;;;;;;;;17.38;72.49;99589.22;3301592;29;19930;-73
2021/09/12 00:51:51;;;;;;;;;;;;;;;17.37;72.38;99590.31;3302071;29;19935;-74
2021/09/12 00:53:32;;;;;;;;;;;;;;;17.36;72.28;99588.66;3300530;29;19980;-74
2021/09/12 00:55:13;;;;;;;;;;;;;;;17.35;72.36;99595.09;3301511;29;19937;-74
2021/09/12 00:56:54;;;;;;;;;;;;;;;17.35;72.60;99589.72;3312890;29;20023;-73
2021/09/12 00:58:36;;;;;;;;;;;;;;;17.34;72.63;99593.44;3300897;29;20409;-73
2021/09/12 01:00:16;;;;;;;;;;;;;;;17.33;72.63;99594.53;3311058;29;19993;-73
2021/09/12 01:01:57;;;;;;;;;;;;;;;17.32;72.50;99594.75;3307855;29;19933;-74
2021/09/12 01:03:38;;;;;;;;;;;;;;;17.32;72.72;99605.53;3314043;29;19921;-73
2021/09/12 01:05:18;;;;;;;;;;;;;;;17.29;72.41;99590.66;3312310;29;19996;-73
2021/09/12 01:07:00;;;;;;;;;;;;;;;17.28;72.59;99589.03;3301530;29;20405;-73
2021/09/12 01:08:40;;;;;;;;;;;;;;;17.26;72.43;99591.16;3301819;29;20019;-73
2021/09/12 01:10:21;;;;;;;;;;;;;;;17.26;72.72;99590.34;3300644;29;20310;-73
2021/09/12 01:12:02;;;;;;;;;;;;;;;17.25;72.82;99592.22;3301133;29;19930;-73
2021/09/12 01:13:42;;;;;;;;;;;;;;;17.26;72.70;99579.56;3312941;29;20384;-73
2021/09/12 01:15:23;;;;;;;;;;;;;;;17.26;72.79;99585.75;3305343;29;19945;-73
2021/09/12 01:17:03;;;;;;;;;;;;;;;17.25;72.71;99581.44;3322801;29;20389;-72
2021/09/12 01:18:44;;;;;;;;;;;;;;;17.24;72.59;99577.09;3315832;29;20036;-74
2021/09/12 01:20:25;;;;;;;;;;;;;;;17.25;72.48;99581.44;3311706;29;19997;-71
2021/09/12 01:22:06;;;;;;;;;;;;;;;17.25;72.49;99578.75;3301900;29;19969;-72
2021/09/12 01:23:47;;;;;;;;;;;;;;;17.23;72.66;99581.69;3301832;29;20430;-73
2021/09/12 01:25:27;;;;;;;;;;;;;;;17.24;72.55;99574.41;3301191;29;19941;-72
2021/09/12 01:27:08;;;;;;;;;;;;;;;17.24;72.46;99571.72;3304383;29;19929;-73
2021/09/12 01:28:50;;;;;;;;;;;;;;;17.24;72.78;99574.41;3306123;29;19929;-73
2021/09/12 01:30:30;;;;;;;;;;;;;;;17.23;72.63;99575.47;3297626;30;19935;-72
2021/09/12 01:32:11;;;;;;;;;;;;;;;17.23;72.74;99581.69;3297668;30;20287;-72
2021/09/12 01:33:51;;;;;;;;;;;;;;;17.23;72.46;99580.88;3304714;29;19943;-73
2021/09/12 01:35:34;;;;;;;;;;;;;;;17.23;72.73;99580.88;3307770;29;20134;-73
2021/09/12 01:37:15;;;;;;;;;;;;;;;17.22;72.66;99582.75;3313675;29;20423;-73
2021/09/12 01:38:55;;;;;;;;;;;;;;;17.23;72.68;99578.97;3310282;29;19932;-72
2021/09/12 01:40:36;;;;;;;;;;;;;;;17.23;72.61;99583.56;3326117;29;20032;-72
2021/09/12 01:42:16;;;;;;;;;;;;;;;17.21;72.73;99574.91;3326094;29;20024;-72
2021/09/12 01:43:57;;;;;;;;;;;;;;;17.18;72.67;99565.41;3308691;29;20006;-72
2021/09/12 01:45:38;;;;;;;;;;;;;;;17.17;72.58;99571.06;3315019;29;20465;-72
2021/09/12 01:47:18;;;;;;;;;;;;;;;17.15;72.86;99573.97;3313560;29;19933;-71
2021/09/12 01:49:04;;;;;;;;;;;;;;;17.13;72.53;99573.41;3312666;29;19934;-72
2021/09/12 01:50:45;;;;;;;;;;;;;;;17.11;72.92;99572.81;3312976;29;19935;-72
2021/09/12 01:52:26;;;;;;;;;;;;;;;17.10;72.98;99573.06;3299872;30;19929;-71
2021/09/12 01:54:07;;;;;;;;;;;;;;;17.08;72.78;99581.38;3301069;29;19951;-73
2021/09/12 01:55:47;;;;;;;;;;;;;;;17.08;72.78;99572.50;3303659;29;19929;-73
2021/09/12 01:57:28;;;;;;;;;;;;;;;17.08;72.72;99577.88;3312299;29;19933;-73
2021/09/12 01:59:09;;;;;;;;;;;;;;;17.07;72.64;99570.88;3304068;29;20032;-73
2021/09/12 02:00:49;;;;;;;;;;;;;;;17.08;72.92;99573.31;3300903;29;20500;-74
2021/09/12 02:02:31;;;;;;;;;;;;;;;17.09;72.74;99582.19;3300613;29;19929;-73
2021/09/12 02:04:12;;;;;;;;;;;;;;;17.08;72.79;99580.56;3302761;29;19930;-72
2021/09/12 02:05:52;;;;;;;;;;;;;;;17.06;72.90;99580.78;3300786;29;19930;-73
2021/09/12 02:07:33;;;;;;;;;;;;;;;17.06;72.59;99569.22;3300801;29;20393;-72
2021/09/12 02:09:13;;;;;;;;;;;;;;;17.05;72.92;99572.97;3301602;29;20386;-74
2021/09/12 02:10:54;;;;;;;;;;;;;;;17.03;72.91;99569.69;3300909;29;20024;-73
2021/09/12 02:12:38;;;;;;;;;;;;;;;17.03;72.69;99567.81;3300920;29;19929;-74
2021/09/12 02:14:19;;;;;;;;;;;;;;;17.00;72.95;99571.81;3300455;29;20161;-74
2021/09/12 02:15:59;;;;;;;;;;;;;;;16.99;73.10;99558.59;3304731;29;19929;-74
2021/09/12 02:17:40;;;;;;;;;;;;;;;16.99;72.92;99558.59;3304265;29;19929;-73
2021/09/12 02:19:20;;;;;;;;;;;;;;;16.98;73.09;99573.09;3301455;29;19936;-73
2021/09/12 02:21:01;;;;;;;;;;;;;;;16.98;72.75;99568.53;3300757;29;19929;-73
2021/09/12 02:22:41;;;;;;;;;;;;;;;16.97;72.72;99566.09;3300814;29;19930;-73
2021/09/12 02:24:22;;;;;;;;;;;;;;;16.97;72.77;99566.91;3300489;29;19929;-73
2021/09/12 02:26:02;;;;;;;;;;;;;;;16.95;72.84;99573.59;3311051;29;19984;-73
2021/09/12 02:27:43;;;;;;;;;;;;;;;16.95;72.66;99566.31;3303030;29;19929;-72
2021/09/12 02:29:23;;;;;;;;;;;;;;;16.95;72.93;99563.63;3301546;29;20331;-72
2021/09/12 02:31:04;;;;;;;;;;;;;;;16.95;72.68;99571.72;3300079;29;19949;-73
2021/09/12 02:32:44;;;;;;;;;;;;;;;16.94;72.64;99569.28;3304306;29;19929;-74
2021/09/12 02:34:25;;;;;;;;;;;;;;;16.93;73.00;99570.31;3311871;29;19959;-73
2021/09/12 02:36:06;;;;;;;;;;;;;;;16.91;72.79;99565.19;3312630;29;19928;-74
2021/09/12 02:37:46;;;;;;;;;;;;;;;16.89;73.06;99564.59;3313410;29;19958;-73
2021/09/12 02:39:27;;;;;;;;;;;;;;;16.89;72.87;99569.16;3310994;29;19929;-74
2021/09/12 02:41:07;;;;;;;;;;;;;;;16.88;73.02;99562.97;3313133;29;19952;-74
2021/09/12 02:42:48;;;;;;;;;;;;;;;16.87;73.11;99569.41;3311226;29;19929;-74
2021/09/12 02:44:28;;;;;;;;;;;;;;;16.87;73.07;99572.09;3312774;29;19929;-74
2021/09/12 02:46:09;;;;;;;;;;;;;;;16.85;73.03;99566.13;3305486;29;19930;-74
2021/09/12 02:47:49;;;;;;;;;;;;;;;16.84;73.09;99567.19;3305514;29;19985;-74
2021/09/12 02:49:30;;;;;;;;;;;;;;;16.83;73.09;99565.56;3304354;29;19937;-73
2021/09/12 02:51:10;;;;;;;;;;;;;;;16.83;73.11;99568.25;3300274;29;19930;-74
2021/09/12 02:52:51;;;;;;;;;;;;;;;16.83;73.01;99562.88;3300015;29;19936;-74
2021/09/12 02:54:31;;;;;;;;;;;;;;;16.82;73.15;99563.91;3300035;29;20022;-73
2021/09/12 02:56:12;;;;;;;;;;;;;;;16.82;73.16;99566.59;3300220;29;20024;-74
2021/09/12 02:57:52;;;;;;;;;;;;;;;16.82;72.91;99558.53;3300194;29;19929;-74
2021/09/12 02:59:33;;;;;;;;;;;;;;;16.82;72.74;99563.09;3309353;29;20019;-73
2021/09/12 03:01:13;;;;;;;;;;;;;;;16.79;73.10;99572.47;3313300;29;19936;-74
2021/09/12 03:02:54;;;;;;;;;;;;;;;16.77;73.10;99561.94;3312260;29;19928;-74
2021/09/12 03:04:34;;;;;;;;;;;;;;;16.75;72.93;99565.88;3312956;29;19969;-74
2021/09/12 03:06:15;;;;;;;;;;;;;;;16.74;72.96;99569.63;3312708;29;20402;-74
2021/09/12 03:07:55;;;;;;;;;;;;;;;16.74;73.21;99564.25;3313346;29;20048;-74
2021/09/12 03:09:36;;;;;;;;;;;;;;;16.75;73.10;99557.81;3312181;29;19929;-74
2021/09/12 03:11:16;;;;;;;;;;;;;;;16.74;73.11;99554.31;3313399;29;19929;-73
2021/09/12 03:12:57;;;;;;;;;;;;;;;16.74;73.04;99558.88;3313601;29;19935;-73
2021/09/12 03:14:37;;;;;;;;;;;;;;;16.74;73.19;99548.91;3311976;29;20031;-74
2021/09/12 03:16:18;;;;;;;;;;;;;;;16.75;72.86;99541.66;3304127;29;19968;-74
2021/09/12 03:17:59;;;;;;;;;;;;;;;16.76;72.86;99556.78;3311740;29;19936;-74
2021/09/12 03:19:40;;;;;;;;;;;;;;;16.77;73.06;99561.94;3299094;30;19978;-74
2021/09/12 03:21:20;;;;;;;;;;;;;;;16.79;72.78;99564.41;3310272;29;19929;-74
2021/09/12 03:23:01;;;;;;;;;;;;;;;16.76;72.91;99565.66;3312956;29;19929;-74
2021/09/12 03:24:41;;;;;;;;;;;;;;;16.77;73.10;99566.47;3312725;29;19940;-73
2021/09/12 03:26:22;;;;;;;;;;;;;;;16.76;73.03;99564.84;3312300;29;19951;-73
2021/09/12 03:28:02;;;;;;;;;;;;;;;16.75;72.93;99563.19;3310468;29;20422;-73
2021/09/12 03:29:43;;;;;;;;;;;;;;;16.75;72.90;99564.03;3302381;29;19956;-74
2021/09/12 03:31:24;;;;;;;;;;;;;;;16.77;72.65;99569.16;3303915;29;20016;-73
2021/09/12 03:33:05;;;;;;;;;;;;;;;16.78;72.73;99568.97;3311443;29;19929;-74
2021/09/12 03:34:45;;;;;;;;;;;;;;;16.81;72.72;99562.28;3312498;29;19958;-74
2021/09/12 03:36:26;;;;;;;;;;;;;;;16.81;72.61;99558.78;3302053;29;19936;-73
2021/09/12 03:38:07;;;;;;;;;;;;;;;16.80;72.60;99555.25;3314310;29;19939;-74
2021/09/12 03:39:47;;;;;;;;;;;;;;;16.80;72.82;99560.63;3304649;29;19930;-74
2021/09/12 03:41:28;;;;;;;;;;;;;;;16.83;72.86;99568.25;3302060;29;19929;-74
2021/09/12 03:43:09;;;;;;;;;;;;;;;16.83;72.92;99562.88;3303053;29;20420;-74
2021/09/12 03:44:49;;;;;;;;;;;;;;;16.87;72.51;99568.59;3311969;29;19930;-73
2021/09/12 03:46:30;;;;;;;;;;;;;;;16.87;72.38;99569.41;3313904;29;19970;-73
2021/09/12 03:48:10;;;;;;;;;;;;;;;16.90;72.38;99576.19;3314743;29;19936;-73
2021/09/12 03:49:51;;;;;;;;;;;;;;;16.93;72.55;99576.50;3314847;29;19977;-74
2021/09/12 03:51:31;;;;;;;;;;;;;;;16.96;72.65;99570.66;3312836;29;20008;-73
2021/09/12 03:53:12;;;;;;;;;;;;;;;16.98;72.16;99579.31;3314820;29;20023;-73
2021/09/12 03:54:52;;;;;;;;;;;;;;;17.03;72.20;99572.41;3314589;29;20489;-73
2021/09/12 03:56:33;;;;;;;;;;;;;;;17.07;72.33;99578.94;3314741;29;20419;-73
2021/09/12 03:58:14;;;;;;;;;;;;;;;17.11;72.04;99577.41;3312105;29;19921;-74
2021/09/12 03:59:54;;;;;;;;;;;;;;;17.14;71.92;99579.59;3302117;29;20553;-74
2021/09/12 04:01:35;;;;;;;;;;;;;;;17.15;72.21;99571.28;3302183;29;19932;-73
2021/09/12 04:03:15;;;;;;;;;;;;;;;17.17;71.96;99571.06;3311071;29;19929;-74
2021/09/12 04:04:56;;;;;;;;;;;;;;;17.20;72.07;99575.97;3314495;29;19932;-74
2021/09/12 04:06:36;;;;;;;;;;;;;;;17.23;72.08;99572.78;3302822;29;19994;-74
2021/09/12 04:08:17;;;;;;;;;;;;;;;17.26;71.99;99583.06;3301049;30;19929;-73
2021/09/12 04:09:57;;;;;;;;;;;;;;;17.29;71.61;99579.88;3301636;30;20314;-73
2021/09/12 04:11:38;;;;;;;;;;;;;;;17.30;71.90;99581.53;3303043;29;20407;-75
2021/09/12 04:13:19;;;;;;;;;;;;;;;17.31;71.47;99580.47;3301953;29;19929;-75
2021/09/12 04:14:59;;;;;;;;;;;;;;;17.35;71.52;99581.63;3300644;29;20049;-74
2021/09/12 04:16:40;;;;;;;;;;;;;;;17.39;71.63;99573.88;3307813;29;19936;-75
2021/09/12 04:18:20;;;;;;;;;;;;;;;17.43;71.25;99569.66;3314030;29;19936;-74
2021/09/12 04:20:01;;;;;;;;;;;;;;;17.48;71.42;99571.59;3313635;29;19929;-74
2021/09/12 04:21:42;;;;;;;;;;;;;;;17.51;71.42;99576.53;3312196;29;19935;-74
2021/09/12 04:23:22;;;;;;;;;;;;;;;17.55;71.10;99572.25;3314439;29;20012;-74
2021/09/12 04:25:03;;;;;;;;;;;;;;;17.60;71.27;99573.16;3314171;29;20030;-74
2021/09/12 04:26:43;;;;;;;;;;;;;;;17.65;71.18;99569.75;3314347;29;19968;-75
2021/09/12 04:28:24;;;;;;;;;;;;;;;17.70;70.85;99569.84;3303996;29;19929;-72
2021/09/12 04:30:05;;;;;;;;;;;;;;;17.74;70.92;99568.28;3301862;29;19933;-74
2021/09/12 04:31:46;;;;;;;;;;;;;;;17.78;70.91;99574.81;3310992;29;19945;-73
2021/09/12 04:33:26;;;;;;;;;;;;;;;17.82;70.37;99567.91;3313403;29;19929;-73
2021/09/12 04:35:07;;;;;;;;;;;;;;;17.86;70.48;99571.75;3313158;29;20045;-72
2021/09/12 04:36:48;;;;;;;;;;;;;;;17.90;70.21;99569.38;3313979;29;19929;-73
2021/09/12 04:38:28;;;;;;;;;;;;;;;17.95;70.11;99576.75;3325701;29;20475;-73
2021/09/12 04:40:09;;;;;;;;;;;;;;;17.99;70.03;99572.47;3316123;29;19932;-73
2021/09/12 04:41:50;;;;;;;;;;;;;;;18.03;69.99;99576.31;3304237;29;19929;-73
2021/09/12 04:43:30;;;;;;;;;;;;;;;18.06;70.04;99573.13;3306679;29;20365;-74
2021/09/12 04:45:11;;;;;;;;;;;;;;;18.11;69.80;99575.09;3309373;29;19933;-73
2021/09/12 04:46:51;;;;;;;;;;;;;;;18.17;69.66;99583.00;3308998;29;20401;-73
2021/09/12 04:48:32;;;;;;;;;;;;;;;18.23;69.56;99575.81;3313228;29;20289;-74
2021/09/12 04:50:12;;;;;;;;;;;;;;;18.30;69.65;99576.44;3313296;29;19929;-73
2021/09/12 04:51:53;;;;;;;;;;;;;;;18.34;69.13;99574.91;3314017;29;19925;-72
2021/09/12 04:53:33;;;;;;;;;;;;;;;18.38;69.20;99572.50;3308274;29;20394;-73
2021/09/12 04:55:14;;;;;;;;;;;;;;;18.41;69.27;99572.03;3301788;29;19936;-73
2021/09/12 04:56:54;;;;;;;;;;;;;;;18.43;69.09;99561.78;3311785;29;20031;-73
2021/09/12 04:58:35;;;;;;;;;;;;;;;18.45;69.06;99571.25;3313561;29;19939;-73
2021/09/12 05:00:15;;;;;;;;;;;;;;;18.50;69.10;99562.41;3311805;29;19933;-73
2021/09/12 05:01:56;;;;;;;;;;;;;;;18.53;68.80;99561.91;3324195;29;19935;-74
2021/09/12 05:03:37;;;;;;;;;;;;;;;18.59;68.78;99557.44;3313791;29;19928;-74
2021/09/12 05:05:17;;;;;;;;;;;;;;;18.64;68.39;99571.81;3313903;29;20073;-74
2021/09/12 05:06:58;;;;;;;;;;;;;;;18.71;68.19;99569.72;3313648;29;20287;-73
2021/09/12 05:08:39;;;;;;;;;;;;;;;18.80;68.10;99566.63;3313908;29;19929;-73
2021/09/12 05:10:19;;;;;;;;;;;;;;;18.85;67.99;99562.09;3312780;29;20460;-73
2021/09/12 05:12:00;;;;;;;;;;;;;;;18.88;67.92;99558.88;3313654;29;20036;-73
2021/09/12 05:13:40;;;;;;;;;;;;;;;18.91;67.87;99557.56;3313355;29;19992;-73
2021/09/12 05:15:21;;;;;;;;;;;;;;;18.94;67.93;99557.06;3312799;29;20382;-73
2021/09/12 05:17:03;;;;;;;;;;;;;;;18.98;67.67;99555.50;3310844;29;20100;-73
2021/09/12 05:18:44;;;;;;;;;;;;;;;18.99;67.63;99554.41;3312468;29;19989;-73
2021/09/12 05:20:25;;;;;;;;;;;;;;;19.00;67.67;99552.53;3312905;29;20430;-73
2021/09/12 05:22:05;;;;;;;;;;;;;;;18.98;67.14;99546.56;3312723;29;19929;-73
2021/09/12 05:23:46;;;;;;;;;;;;;;;18.94;67.32;99548.94;3313138;29;19933;-73
2021/09/12 05:25:27;;;;;;;;;;;;;;;18.91;67.11;99538.66;3312229;29;19993;-73
2021/09/12 05:27:09;;;;;;;;;;;;;;;18.90;67.39;99540.56;3313248;29;19929;-73
2021/09/12 05:28:49;;;;;;;;;;;;;;;18.88;67.36;99537.28;3313653;29;19986;-73
2021/09/12 05:30:30;;;;;;;;;;;;;;;18.90;67.30;99537.03;3323384;29;19928;-73
2021/09/12 05:32:10;;;;;;;;;;;;;;;18.92;67.49;99537.56;3315762;29;20483;-73
2021/09/12 05:33:51;;;;;;;;;;;;;;;19.00;67.29;99539.00;3311938;29;19936;-73
2021/09/12 05:35:32;;;;;;;;;;;;;;;19.08;66.93;99542.09;3320392;29;19985;-72
2021/09/12 05:37:13;;;;;;;;;;;;;;;19.20;66.82;99541.94;3312474;29;19932;-73
2021/09/12 05:38:53;;;;;;;;;;;;;;;19.33;66.58;99540.72;3313018;29;19994;-73
2021/09/12 05:40:34;;;;;;;;;;;;;;;19.50;66.12;99541.41;3312584;29;19935;-73
2021/09/12 05:42:14;;;;;;;;;;;;;;;19.62;66.02;99535.84;3313402;29;19929;-72
2021/09/12 05:43:55;;;;;;;;;;;;;;;19.76;66.12;99538.97;3312135;29;20004;-75
2021/09/12 05:45:35;;;;;;;;;;;;;;;19.92;65.68;99538.00;3312107;29;20032;-73
2021/09/12 05:47:16;;;;;;;;;;;;;;;20.11;65.25;99537.56;3313291;29;20023;-73
2021/09/12 05:48:56;;;;;;;;;;;;;;;20.24;65.20;99534.41;3313223;29;20023;-74
2021/09/12 05:50:37;;;;;;;;;;;;;;;20.40;64.80;99536.13;3313409;29;20393;-74
2021/09/12 05:52:17;;;;;;;;;;;;;;;20.56;64.58;99538.94;3313371;29;20321;-74
2021/09/12 05:53:58;;;;;;;;;;;;;;;20.69;64.30;99536.53;3312806;29;19929;-74
2021/09/12 05:55:39;;;;;;;;;;;;;;;20.79;64.03;99541.19;3312750;29;20024;-73
2021/09/12 05:57:19;;;;;;;;;;;;;;;20.92;63.94;99540.69;3311499;29;20416;-73
2021/09/12 05:59:00;;;;;;;;;;;;;;;21.08;63.40;99541.53;3312022;29;20416;-73
2021/09/12 06:00:40;;;;;;;;;;;;;;;21.28;63.25;99539.97;3311524;29;20401;-71
2021/09/12 06:02:22;;;;;;;;;;;;;;;21.53;62.56;99542.75;3313112;29;20450;-72
2021/09/12 06:04:03;;;;;;;;;;;;;;;21.80;62.00;99546.25;3313182;29;19982;-72
2021/09/12 06:05:44;;;;;;;;;;;;;;;22.01;61.35;99534.28;3297968;29;19952;-74
2021/09/12 06:07:27;;;;;;;;;;;;;;;22.14;61.32;99532.91;3300337;29;19930;-73
2021/09/12 06:09:07;;;;;;;;;;;;;;;22.17;61.09;99535.06;3312812;29;20402;-74
2021/09/12 06:10:48;;;;;;;;;;;;;;;22.16;61.08;99539.69;3312666;29;19936;-73
2021/09/12 06:12:28;;;;;;;;;;;;;;;22.14;61.30;99541.88;3312583;29;20438;-73
2021/09/12 06:14:09;;;;;;;;;;;;;;;22.12;61.43;99541.34;3313005;29;20016;-73
2021/09/12 06:15:50;;;;;;;;;;;;;;;22.12;61.22;99541.34;3312683;29;19932;-73
2021/09/12 06:17:32;;;;;;;;;;;;;;;22.10;61.09;99540.00;3312353;29;19929;-73
2021/09/12 06:19:13;;;;;;;;;;;;;;;22.08;61.00;99539.44;3310988;29;19932;-72
2021/09/12 06:20:53;;;;;;;;;;;;;;;22.08;60.92;99537.53;3319187;29;19929;-72
2021/09/12 06:22:41;;;;;;;;;;;;;;;22.08;60.40;99542.97;3314278;29;20357;-74
2021/09/12 06:24:21;;;;;;;;;;;;;;;22.17;60.42;99538.59;3310722;29;19929;-75
2021/09/12 06:26:02;;;;;;;;;;;;;;;22.26;60.36;99535.38;3308179;29;19935;-75
2021/09/12 06:27:45;;;;;;;;;;;;;;;22.35;60.38;99541.84;3311155;29;19940;-75
2021/09/12 06:29:26;;;;;;;;;;;;;;;22.42;60.59;99543.19;3311178;29;20007;-74
2021/09/12 06:31:07;;;;;;;;;;;;;;;22.62;60.10;99541.50;3311713;29;20351;-76
2021/09/12 06:32:48;;;;;;;;;;;;;;;22.72;59.96;99537.91;3312642;29;20397;-75
2021/09/12 06:34:29;;;;;;;;;;;;;;;22.78;59.56;99544.97;3311549;29;19929;-74
2021/09/12 06:36:10;;;;;;;;;;;;;;;22.77;59.35;99532.44;3313756;29;19929;-74
2021/09/12 06:37:50;;;;;;;;;;;;;;;22.70;59.30;99542.84;3319377;29;20032;-75
2021/09/12 06:39:31;;;;;;;;;;;;;;;22.60;59.33;99538.25;3313835;29;19936;-74
2021/09/12 06:41:12;;;;;;;;;;;;;;;22.48;59.17;99551.31;3311260;29;20008;-76
2021/09/12 06:42:53;;;;;;;;;;;;;;;22.33;59.49;99538.59;3312530;29;20320;-77
2021/09/12 06:44:33;;;;;;;;;;;;;;;22.23;59.47;99542.16;3308707;29;19929;-74
2021/09/12 06:46:16;;;;;;;;;;;;;;;22.18;59.87;99542.97;3311526;29;20582;-75
2021/09/12 06:47:56;;;;;;;;;;;;;;;22.16;59.75;99538.88;3314654;29;19928;-73
2021/09/12 06:49:37;;;;;;;;;;;;;;;22.13;59.72;99545.69;3311656;29;19968;-76
2021/09/12 06:51:17;;;;;;;;;;;;;;;22.11;59.54;99547.03;3301882;29;20001;-74
2021/09/12 06:52:58;;;;;;;;;;;;;;;22.13;59.49;99550.31;3305955;29;19929;-73
2021/09/12 06:54:40;;;;;;;;;;;;;;;22.18;59.75;99551.09;3312157;29;19979;-73
2021/09/12 06:56:20;;;;;;;;;;;;;;;22.25;59.46;99547.31;3312706;29;19933;-75
2021/09/12 06:58:03;;;;;;;;;;;;;;;22.30;59.12;99544.59;3311530;29;19935;-75
2021/09/12 06:59:44;;;;;;;;;;;;;;;22.33;59.17;99546.75;3312696;29;19956;-75
2021/09/12 07:01:24;;;;;;;;;;;;;;;22.34;58.79;99551.91;3323997;29;20401;-75
2021/09/12 07:03:05;;;;;;;;;;;;;;;22.30;58.93;99547.28;3323760;29;19935;-74
2021/09/12 07:04:46;;;;;;;;;;;;;;;22.25;58.97;99558.16;3323127;29;20027;-76
2021/09/12 07:06:27;;;;;;;;;;;;;;;22.20;58.92;99557.09;3310812;29;20470;-75
2021/09/12 07:08:09;;;;;;;;;;;;;;;22.17;58.89;99552.16;3312801;29;19929;-75
2021/09/12 07:09:50;;;;;;;;;;;;;;;22.17;58.96;99546.75;3309087;29;19972;-75
2021/09/12 07:11:32;;;;;;;;;;;;;;;22.18;58.93;99548.38;3311781;29;19935;-73
2021/09/12 07:13:13;;;;;;;;;;;;;;;22.22;58.73;99545.97;3317496;29;19928;-74
2021/09/12 07:14:53;;;;;;;;;;;;;;;22.28;58.93;99546.75;3312208;29;20491;-78
2021/09/12 07:16:34;;;;;;;;;;;;;;;22.35;58.87;99555.44;3311994;29;20020;-78
2021/09/12 07:18:15;;;;;;;;;;;;;;;22.43;58.55;99552.13;3311458;29;20374;-78
2021/09/12 07:19:55;;;;;;;;;;;;;;;22.47;58.59;99550.50;3311770;29;19974;-78
2021/09/12 07:21:37;;;;;;;;;;;;;;;22.47;58.31;99547.78;3311338;29;19977;-78
2021/09/12 07:23:18;;;;;;;;;;;;;;;22.45;58.15;99549.97;3312501;29;19930;-77
2021/09/12 07:24:58;;;;;;;;;;;;;;;22.42;58.41;99550.53;3332942;29;20023;-78
2021/09/12 07:26:41;;;;;;;;;;;;;;;22.36;58.37;99555.16;3326364;29;19954;-78
2021/09/12 07:28:22;;;;;;;;;;;;;;;22.34;58.40;99556.53;3323300;29;20393;-76
2021/09/12 07:30:03;;;;;;;;;;;;;;;22.35;58.31;99552.72;3308017;29;19933;-77
2021/09/12 07:31:44;;;;;;;;;;;;;;;22.33;58.86;99555.72;3309900;29;19929;-77
2021/09/12 07:33:24;;;;;;;;;;;;;;;22.29;58.61;99546.50;3312369;29;19936;-76
2021/09/12 07:35:05;;;;;;;;;;;;;;;22.28;58.58;99547.59;3311978;29;19929;-77
2021/09/12 07:36:46;;;;;;;;;;;;;;;22.32;58.34;99536.97;3311614;29;19929;-77
2021/09/12 07:38:26;;;;;;;;;;;;;;;22.46;58.27;99535.31;3311623;29;19929;-79
2021/09/12 07:40:07;;;;;;;;;;;;;;;22.53;58.05;99538.53;3311421;29;20024;-80
2021/09/12 07:41:52;;;;;;;;;;;;;;;22.58;57.80;99538.50;3324011;29;19932;-79
2021/09/12 07:43:32;;;;;;;;;;;;;;;22.74;57.75;99543.88;3313895;29;19935;-80
2021/09/12 07:45:17;;;;;;;;;;;;;;;22.88;57.40;99544.91;3310240;29;20520;-79
2021/09/12 07:46:58;;;;;;;;;;;;;;;22.99;57.43;99546.50;3312976;29;19929;-80
2021/09/12 07:48:39;;;;;;;;;;;;;;;23.05;57.08;99550.00;3307643;29;20194;-77
2021/09/12 07:50:19;;;;;;;;;;;;;;;23.09;57.10;99553.81;3308981;29;20017;-77
2021/09/12 07:52:00;;;;;;;;;;;;;;;23.21;57.07;99556.19;3307041;29;19933;-78
2021/09/12 07:53:41;;;;;;;;;;;;;;;23.35;56.60;99549.00;3310971;29;20353;-78
2021/09/12 07:55:24;;;;;;;;;;;;;;;23.50;56.61;99551.63;3311010;29;19986;-77
2021/09/12 07:57:05;;;;;;;;;;;;;;;23.61;56.37;99546.91;3323076;29;20565;-82
2021/09/12 07:58:45;;;;;;;;;;;;;;;23.76;55.91;99539.78;3313693;29;19933;-71
2021/09/12 08:00:26;;;;;;;;;;;;;;;23.85;56.15;99544.31;3311202;29;19989;-73
2021/09/12 08:02:07;;;;;;;;;;;;;;;23.95;55.82;99538.75;3317093;29;20420;-71
2021/09/12 08:03:47;;;;;;;;;;;;;;;24.02;55.07;99543.06;3323501;29;20361;-73
2021/09/12 08:05:30;;;;;;;;;;;;;;;24.06;55.20;99542.22;3316884;29;20016;-72
2021/09/12 08:07:10;;;;;;;;;;;;;;;24.11;55.24;99544.03;3317515;29;19929;-78
2021/09/12 08:08:51;;;;;;;;;;;;;;;24.15;55.27;99545.09;3322199;29;20109;-81
2021/09/12 08:10:32;;;;;;;;;;;;;;;24.19;55.02;99546.16;3314154;29;19925;-76
2021/09/12 08:12:13;;;;;;;;;;;;;;;24.21;54.64;99548.59;3311887;29;20414;-77
2021/09/12 08:13:54;;;;;;;;;;;;;;;24.21;54.40;99548.59;3324424;29;19936;-75
2021/09/12 08:15:35;;;;;;;;;;;;;;;24.16;54.41;99541.28;3314365;29;19933;-76
2021/09/12 08:17:15;;;;;;;;;;;;;;;24.12;54.45;99549.22;3312293;29;19935;-78
2021/09/12 08:18:56;;;;;;;;;;;;;;;24.09;54.70;99546.25;3323483;29;19936;-80
2021/09/12 08:20:36;;;;;;;;;;;;;;;24.02;54.38;99540.34;3310897;29;19937;-76
2021/09/12 08:22:17;;;;;;;;;;;;;;;23.97;54.14;99543.09;3312241;29;19972;-78
2021/09/12 08:23:57;;;;;;;;;;;;;;;23.91;54.14;99532.28;3312596;29;20012;-78
2021/09/12 08:25:46;;;;;;;;;;;;;;;23.85;54.77;99533.44;3313257;29;19929;-78
2021/09/12 08:27:27;;;;;;;;;;;;;;;23.79;54.93;99536.47;3313714;29;19980;-79
2021/09/12 08:29:09;;;;;;;;;;;;;;;23.71;54.63;99537.88;3314112;29;19952;-76
2021/09/12 08:30:51;;;;;;;;;;;;;;;23.65;54.80;99534.38;3313379;29;19929;-78
2021/09/12 08:32:31;;;;;;;;;;;;;;;23.59;54.84;99542.84;3313472;29;20043;-78
2021/09/12 08:34:12;;;;;;;;;;;;;;;23.55;55.05;99536.38;3313606;29;19929;-78
2021/09/12 08:35:52;;;;;;;;;;;;;;;23.50;54.83;99532.59;3323051;29;19933;-75
2021/09/12 08:37:34;;;;;;;;;;;;;;;23.47;54.89;99543.22;3309586;29;19941;-77
2021/09/12 08:39:14;;;;;;;;;;;;;;;23.44;54.79;99535.63;3301833;29;19929;-80
2021/09/12 08:40:58;;;;;;;;;;;;;;;23.43;55.31;99534.00;3314525;29;19993;-76
2021/09/12 08:42:41;;;;;;;;;;;;;;;23.39;55.41;99532.94;3314376;29;19936;-82
2021/09/12 08:44:21;;;;;;;;;;;;;;;23.33;55.12;99534.06;3314542;29;20027;-79
2021/09/12 08:46:02;;;;;;;;;;;;;;;23.30;55.10;99538.16;3314362;29;19952;-77